Biggar, United Kingdom
Current Conditions -  °F | °C
As of 8:20 PM on Sunday 23 Nov 2014 (Local Time) from EGPH Reporting Station
Few Clouds Few Clouds  
Wind Chill: 33°   Ceiling: Unl
Heat Index: 39°   Visibility: 6mi
Dew Point: 37°   Wind: 9mph
Humidity: 93%   Direction: 240°WSW
Pressure: 30"   Gusts: NA
Location:  55.62°N, 3.52°W
Report Text: EGPH 232020Z 24008KT 9999 FEW034 04/03 Q1016
Loading
Personal Weather Stations






























Interactive Weather Map New forecast layout! Learn more

10-Day Weather Forecast

Advertisements
Track Severe Weather on mobile